Time;durP1;ratioP1;P1;durP2;ratioP2;P2;SDS_P1;SDS_P2;PMS_P1;PMS_P2;Temp;Humidity;BMP_temperature;BMP_pressure;BME280_temperature;BME280_humidity;BME280_pressure;Samples;Min_cycle;Max_cycle;Signal;HPM_P1;HPM_P2
2021/11/22 00:00:45;;;;;;;24.05;15.58;;;25.60;91.80;;;;;;1741390;81;21175;-80
2021/11/22 00:03:16;;;;;;;20.55;14.23;;;25.60;91.70;;;;;;1758052;80;21242;-80
2021/11/22 00:05:48;;;;;;;19.80;13.72;;;25.60;91.70;;;;;;1759321;80;21269;-80
2021/11/22 00:08:18;;;;;;;19.98;13.93;;;25.60;91.60;;;;;;1735844;81;21161;-80
2021/11/22 00:10:49;;;;;;;19.87;12.37;;;25.60;91.60;;;;;;1757138;80;21104;-80
2021/11/22 00:13:21;;;;;;;14.83;10.55;;;25.70;91.60;;;;;;1740385;81;21649;-80
2021/11/22 00:15:53;;;;;;;15.78;9.60;;;25.70;91.50;;;;;;1760859;80;21138;-79
2021/11/22 00:18:24;;;;;;;13.68;9.28;;;25.70;93.50;;;;;;1757293;80;21221;-80
2021/11/22 00:20:55;;;;;;;12.23;8.35;;;25.80;91.50;;;;;;1731906;82;21821;-79
2021/11/22 00:23:25;;;;;;;11.97;9.05;;;25.80;91.40;;;;;;1754889;80;21153;-80
2021/11/22 00:25:56;;;;;;;14.95;9.10;;;25.80;91.30;;;;;;1810495;79;21090;-78
2021/11/22 00:28:29;;;;;;;13.60;8.23;;;25.80;91.20;;;;;;1796975;78;21635;-78
2021/11/22 00:30:59;;;;;;;15.45;9.48;;;25.90;91.50;;;;;;1780637;79;21145;-80
2021/11/22 00:33:31;;;;;;;12.30;8.83;;;25.90;91.50;;;;;;1797840;78;21188;-80
2021/11/22 00:36:02;;;;;;;17.75;9.28;;;25.90;91.20;;;;;;1810730;78;21321;-80
2021/11/22 00:38:33;;;;;;;15.63;8.60;;;25.90;91.20;;;;;;1800416;78;21137;-79
2021/11/22 00:41:04;;;;;;;19.27;9.48;;;26.00;91.30;;;;;;1791730;78;21210;-80
2021/11/22 00:43:35;;;;;;;17.70;9.10;;;26.00;91.20;;;;;;1797383;78;21133;-80
2021/11/22 00:46:07;;;;;;;13.25;9.20;;;26.10;91.30;;;;;;1798772;78;21094;-81
2021/11/22 00:48:39;;;;;;;14.07;8.70;;;26.10;91.30;;;;;;1775479;79;21193;-80
2021/11/22 00:51:10;;;;;;;14.13;8.48;;;26.10;91.30;;;;;;1780963;79;21661;-73
2021/11/22 00:53:41;;;;;;;13.55;8.30;;;26.20;91.10;;;;;;1776185;79;21607;-74
2021/11/22 00:56:16;;;;;;;24.32;9.65;;;26.20;91.20;;;;;;1789482;79;21610;-74
2021/11/22 00:58:46;;;;;;;236.47;29.72;;;26.20;91.20;;;;;;1781282;79;21157;-74
2021/11/22 01:01:17;;;;;;;110.00;16.85;;;26.20;91.00;;;;;;1807660;79;21105;-74
2021/11/22 01:03:47;;;;;;;19.00;10.55;;;26.30;91.10;;;;;;1741588;80;21225;-73
2021/11/22 01:06:18;;;;;;;15.90;10.20;;;26.30;91.20;;;;;;1745120;81;21619;-74
2021/11/22 01:08:48;;;;;;;14.47;10.58;;;26.40;91.40;;;;;;1751006;81;21188;-73
2021/11/22 01:11:20;;;;;;;15.23;10.40;;;26.40;91.30;;;;;;1750275;80;21080;-74
2021/11/22 01:13:51;;;;;;;13.53;10.00;;;26.50;91.40;;;;;;1749550;80;21147;-73
2021/11/22 01:16:22;;;;;;;16.87;12.10;;;26.50;91.30;;;;;;1756701;80;21737;-73
2021/11/22 01:18:53;;;;;;;19.75;10.05;;;26.50;91.30;;;;;;1732464;81;21176;-73
2021/11/22 01:21:24;;;;;;;13.55;9.80;;;26.60;91.10;;;;;;1735920;81;21124;-74
2021/11/22 01:23:55;;;;;;;13.10;9.50;;;26.60;91.00;;;;;;1749342;80;21179;-72
2021/11/22 01:26:26;;;;;;;14.70;10.58;;;26.60;91.00;;;;;;1710209;82;21209;-74
2021/11/22 01:28:56;;;;;;;18.75;10.18;;;26.60;91.10;;;;;;1747994;80;21109;-73
2021/11/22 01:31:27;;;;;;;20.75;10.88;;;26.60;91.10;;;;;;1737409;80;21650;-74
2021/11/22 01:33:58;;;;;;;17.85;10.25;;;26.70;91.20;;;;;;1735685;81;21278;-75
2021/11/22 01:36:29;;;;;;;17.67;11.45;;;26.70;91.10;;;;;;1752102;80;21734;-77
2021/11/22 01:39:00;;;;;;;17.00;10.48;;;26.80;91.10;;;;;;1708078;82;21186;-75
2021/11/22 01:41:30;;;;;;;13.85;9.43;;;26.80;90.90;;;;;;1762447;80;21232;-74
2021/11/22 01:44:01;;;;;;;15.18;10.00;;;26.90;90.90;;;;;;1728283;81;21224;-75
2021/11/22 01:46:32;;;;;;;12.98;8.65;;;26.90;90.90;;;;;;1791185;78;21702;-74
2021/11/22 01:49:03;;;;;;;12.00;7.15;;;26.90;90.60;;;;;;1800753;78;21140;-75
2021/11/22 01:51:34;;;;;;;11.05;7.65;;;27.00;90.10;;;;;;1769421;80;21146;-74
2021/11/22 01:54:05;;;;;;;11.40;7.72;;;27.10;90.00;;;;;;1775257;79;21173;-74
2021/11/22 01:56:36;;;;;;;11.38;6.92;;;27.20;90.10;;;;;;1776429;79;21224;-74
2021/11/22 01:59:07;;;;;;;14.50;6.90;;;27.10;92.60;;;;;;1765218;79;21098;-75
2021/11/22 02:01:38;;;;;;;13.53;7.08;;;27.30;88.70;;;;;;1776447;79;21348;-73
2021/11/22 02:04:09;;;;;;;19.60;7.17;;;27.40;87.90;;;;;;1767081;79;21662;-73
2021/11/22 02:06:40;;;;;;;8.20;5.87;;;27.40;86.70;;;;;;1781412;79;21137;-73
2021/11/22 02:09:11;;;;;;;12.30;5.83;;;27.40;86.90;;;;;;1802244;78;21207;-73
2021/11/22 02:11:42;;;;;;;11.83;6.20;;;27.50;87.20;;;;;;1771299;79;21153;-73
2021/11/22 02:14:13;;;;;;;9.20;5.72;;;27.60;86.50;;;;;;1773518;79;21174;-73
2021/11/22 02:16:44;;;;;;;8.63;5.72;;;27.60;86.20;;;;;;1782081;80;21076;-73
2021/11/22 02:19:15;;;;;;;8.70;5.87;;;27.60;86.60;;;;;;1779749;79;21174;-73
2021/11/22 02:21:46;;;;;;;9.83;6.30;;;27.70;86.20;;;;;;1762296;80;21169;-73
2021/11/22 02:24:19;;;;;;;7.85;5.65;;;27.70;85.90;;;;;;1773120;80;21660;-73
2021/11/22 02:26:50;;;;;;;9.03;6.28;;;27.80;86.00;;;;;;1770121;80;21652;-73
2021/11/22 02:29:20;;;;;;;10.15;5.72;;;27.80;86.30;;;;;;1767371;79;21219;-74
2021/11/22 02:31:51;;;;;;;11.48;5.78;;;27.90;85.60;;;;;;1777752;80;21127;-73
2021/11/22 02:34:22;;;;;;;7.53;5.50;;;27.90;85.40;;;;;;1796198;78;21247;-74
2021/11/22 02:36:53;;;;;;;13.03;5.70;;;27.90;85.60;;;;;;1789633;79;21185;-74
2021/11/22 02:39:24;;;;;;;6.83;4.80;;;28.00;85.30;;;;;;1789797;79;21197;-72
2021/11/22 02:41:55;;;;;;;11.10;5.40;;;28.00;85.00;;;;;;1778364;79;21129;-75
2021/11/22 02:44:26;;;;;;;8.73;5.30;;;28.10;85.40;;;;;;1801776;78;21645;-73
2021/11/22 02:46:57;;;;;;;11.00;6.20;;;28.10;85.00;;;;;;1810620;78;21187;-74
2021/11/22 02:49:28;;;;;;;11.43;7.10;;;28.20;84.00;;;;;;1797580;78;21225;-73
2021/11/22 02:51:58;;;;;;;9.05;5.70;;;28.30;84.20;;;;;;1798760;78;21125;-73
2021/11/22 02:54:29;;;;;;;10.55;5.62;;;28.40;83.80;;;;;;1806691;78;21184;-73
2021/11/22 02:57:01;;;;;;;8.73;5.97;;;28.40;83.40;;;;;;1807359;78;21144;-72
2021/11/22 02:59:32;;;;;;;8.35;6.05;;;28.50;83.20;;;;;;1795305;78;21129;-72
2021/11/22 03:02:04;;;;;;;12.63;5.00;;;28.50;82.80;;;;;;1805046;78;21178;-72
2021/11/22 03:04:37;;;;;;;8.58;4.05;;;28.60;82.40;;;;;;1804456;78;21180;-73
2021/11/22 03:07:08;;;;;;;10.10;4.45;;;28.70;81.40;;;;;;1813479;78;21239;-72
2021/11/22 03:09:41;;;;;;;8.80;4.25;;;28.90;81.50;;;;;;1799740;78;21130;-72
2021/11/22 03:12:14;;;;;;;8.15;3.90;;;29.10;94.00;;;;;;1801398;78;21632;-72
2021/11/22 03:14:45;;;;;;;7.90;4.03;;;29.00;80.90;;;;;;1799815;78;21149;-72
2021/11/22 03:17:18;;;;;;;7.83;4.53;;;29.00;80.40;;;;;;1797194;78;21755;-72
2021/11/22 03:19:48;;;;;;;7.62;3.95;;;29.20;79.80;;;;;;1804723;78;21149;-72
2021/11/22 03:22:20;;;;;;;6.90;4.28;;;29.30;79.90;;;;;;1804526;78;21547;-74
2021/11/22 03:24:51;;;;;;;9.45;4.20;;;29.40;79.10;;;;;;1778702;79;21236;-73
2021/11/22 03:27:21;;;;;;;6.10;3.90;;;29.50;79.00;;;;;;1770504;79;21106;-73
2021/11/22 03:29:52;;;;;;;6.28;4.15;;;29.60;78.50;;;;;;1773875;79;21741;-74
2021/11/22 03:32:23;;;;;;;9.85;5.08;;;29.70;78.00;;;;;;1777424;79;21777;-74
2021/11/22 03:34:55;;;;;;;7.72;4.15;;;29.70;77.40;;;;;;1779392;79;21189;-77
2021/11/22 03:37:27;;;;;;;9.68;4.00;;;28.80;82.40;;;;;;1789744;79;21735;-75
2021/11/22 03:39:59;;;;;;;7.15;4.03;;;29.90;76.70;;;;;;1775030;79;21644;-74
2021/11/22 03:42:38;;;;;;;8.33;4.28;;;30.00;76.40;;;;;;1773343;79;21162;-75
2021/11/22 03:45:02;;;;;;;7.53;3.77;;;30.00;76.00;;;;;;1789196;79;21232;-74
2021/11/22 03:47:33;;;;;;;9.30;4.12;;;30.10;76.10;;;;;;1796625;79;21127;-76
2021/11/22 03:50:05;;;;;;;9.13;3.92;;;30.10;76.10;;;;;;1753979;80;21159;-75
2021/11/22 03:52:36;;;;;;;8.75;4.03;;;30.20;76.00;;;;;;1755930;80;21290;-77
2021/11/22 03:55:06;;;;;;;8.65;4.10;;;30.30;75.00;;;;;;1784166;79;21227;-76
2021/11/22 03:57:37;;;;;;;7.42;3.72;;;30.40;74.20;;;;;;1786723;79;21248;-73
2021/11/22 04:00:09;;;;;;;6.65;3.67;;;30.40;74.10;;;;;;1783642;79;21150;-73
2021/11/22 04:02:40;;;;;;;6.83;3.85;;;30.60;73.30;;;;;;1785278;79;21273;-75
2021/11/22 04:05:11;;;;;;;6.75;4.03;;;30.70;73.70;;;;;;1762125;80;21196;-77
2021/11/22 04:07:42;;;;;;;7.28;3.67;;;30.70;72.50;;;;;;1735001;81;21222;-74
2021/11/22 04:10:13;;;;;;;6.03;3.37;;;30.80;73.50;;;;;;1733228;81;21248;-76
2021/11/22 04:12:43;;;;;;;7.33;3.77;;;30.90;72.10;;;;;;1753620;80;21250;-74
2021/11/22 04:15:14;;;;;;;6.03;3.60;;;30.90;72.30;;;;;;1723937;81;21170;-74
2021/11/22 04:17:45;;;;;;;7.33;3.50;;;31.00;71.90;;;;;;1753941;80;21229;-73
2021/11/22 04:20:15;;;;;;;8.85;3.60;;;31.00;70.20;;;;;;1734579;82;21104;-74
2021/11/22 04:22:49;;;;;;;7.10;3.55;;;31.10;70.10;;;;;;1737411;82;21225;-75
2021/11/22 04:25:21;;;;;;;7.28;3.67;;;31.20;70.20;;;;;;1718736;82;21178;-76
2021/11/22 04:27:52;;;;;;;6.60;3.45;;;31.40;70.00;;;;;;1743048;80;21658;-74
2021/11/22 04:30:23;;;;;;;7.05;3.37;;;31.30;70.70;;;;;;1763369;80;21216;-76
2021/11/22 04:32:54;;;;;;;7.90;3.80;;;29.90;68.70;;;;;;1733676;82;21208;-75
2021/11/22 04:35:25;;;;;;;6.92;3.12;;;31.50;69.30;;;;;;1736916;80;21611;-76
2021/11/22 04:37:55;;;;;;;6.70;3.30;;;31.50;69.40;;;;;;1732249;82;21289;-76
2021/11/22 04:40:26;;;;;;;5.78;3.20;;;31.60;69.40;;;;;;1746788;81;21194;-75
2021/11/22 04:42:57;;;;;;;8.45;3.87;;;31.60;69.00;;;;;;1751785;81;21143;-75
2021/11/22 04:45:29;;;;;;;6.37;3.27;;;31.80;69.80;;;;;;1764161;80;21253;-74
2021/11/22 04:48:03;;;;;;;5.83;3.50;;;31.90;70.90;;;;;;1809762;79;21131;-73
2021/11/22 04:50:35;;;;;;;12.53;4.12;;;31.90;71.10;;;;;;1800652;79;21170;-73
2021/11/22 04:53:06;;;;;;;7.47;3.22;;;31.90;70.40;;;;;;1765497;80;21562;-74
2021/11/22 04:55:37;;;;;;;6.95;3.42;;;32.20;71.50;;;;;;1754585;80;21748;-77
2021/11/22 04:58:08;;;;;;;6.95;3.30;;;32.20;75.70;;;;;;1741601;81;21532;-76
2021/11/22 05:00:39;;;;;;;5.87;3.55;;;32.00;76.70;;;;;;1761742;80;21155;-75
2021/11/22 05:03:11;;;;;;;5.17;3.25;;;32.20;75.80;;;;;;1798526;79;21678;-73
2021/11/22 05:05:42;;;;;;;6.30;3.30;;;32.20;77.20;;;;;;1769525;79;21192;-73
2021/11/22 05:08:12;;;;;;;9.60;2.83;;;32.20;79.70;;;;;;1789572;79;21121;-76
2021/11/22 05:10:45;;;;;;;5.10;2.80;;;32.40;86.40;;;;;;1790254;79;21109;-75
2021/11/22 05:13:19;;;;;;;8.20;3.60;;;32.40;69.70;;;;;;1781412;79;21155;-74
2021/11/22 05:15:50;;;;;;;9.78;3.08;;;32.50;66.30;;;;;;1786839;79;21160;-76
2021/11/22 05:18:21;;;;;;;6.90;2.92;;;32.50;66.20;;;;;;1776160;79;21220;-75
2021/11/22 05:20:52;;;;;;;5.12;2.85;;;32.40;66.30;;;;;;1766419;79;21207;-75
2021/11/22 05:23:23;;;;;;;5.87;3.25;;;32.60;66.90;;;;;;1782884;79;21116;-74
2021/11/22 05:25:54;;;;;;;6.78;3.22;;;32.60;66.80;;;;;;1785155;79;21837;-75
2021/11/22 05:28:27;;;;;;;6.45;2.72;;;32.50;69.50;;;;;;1794648;79;21126;-74
2021/11/22 05:30:56;;;;;;;4.17;3.05;;;32.60;69.60;;;;;;1789132;79;21180;-74
2021/11/22 05:33:27;;;;;;;7.42;3.25;;;32.70;77.60;;;;;;1779113;79;21608;-74
2021/11/22 05:35:58;;;;;;;6.65;2.92;;;32.70;85.40;;;;;;1771563;79;21136;-73
2021/11/22 05:38:29;;;;;;;4.85;2.77;;;32.70;84.00;;;;;;1769883;81;21175;-73
2021/11/22 05:41:00;;;;;;;7.40;3.40;;;32.90;85.50;;;;;;1765296;81;21451;-74
2021/11/22 05:43:31;;;;;;;5.83;3.22;;;32.80;75.80;;;;;;1760915;79;21253;-73
2021/11/22 05:46:02;;;;;;;8.58;3.40;;;32.90;77.20;;;;;;1761138;81;21093;-74
2021/11/22 05:48:33;;;;;;;17.10;5.05;;;32.90;85.80;;;;;;1767723;79;21225;-74
2021/11/22 05:51:08;;;;;;;13.53;4.87;;;32.90;84.10;;;;;;1775816;79;21167;-74
2021/11/22 05:53:40;;;;;;;13.18;4.50;;;32.90;86.70;;;;;;1783240;79;21213;-74
2021/11/22 05:56:11;;;;;;;11.28;4.92;;;32.90;85.90;;;;;;1788311;79;21716;-75
2021/11/22 05:58:42;;;;;;;9.08;3.00;;;33.20;87.80;;;;;;1784492;79;21295;-74
2021/11/22 06:01:13;;;;;;;5.28;2.83;;;33.20;88.00;;;;;;1786689;79;21175;-75
2021/11/22 06:03:44;;;;;;;6.10;3.25;;;33.20;91.50;;;;;;1768977;79;21778;-77
2021/11/22 06:06:15;;;;;;;7.60;3.15;;;33.20;92.40;;;;;;1771273;79;21077;-75
2021/11/22 06:08:48;;;;;;;4.65;2.72;;;33.30;94.90;;;;;;1777028;79;21199;-75
2021/11/22 06:11:19;;;;;;;6.62;2.75;;;;;;;;;;1782902;80;21744;-76
2021/11/22 06:13:50;;;;;;;6.80;2.90;;;33.30;83.00;;;;;;1777679;80;21721;-76
2021/11/22 06:16:21;;;;;;;4.65;2.60;;;33.10;74.40;;;;;;1779646;79;21654;-74
2021/11/22 06:18:52;;;;;;;6.22;3.08;;;33.20;72.10;;;;;;1778494;79;21470;-73
2021/11/22 06:21:23;;;;;;;5.53;2.72;;;33.10;70.80;;;;;;1780374;79;21175;-73
2021/11/22 06:23:54;;;;;;;6.60;3.17;;;33.10;76.00;;;;;;1780319;79;21911;-74
2021/11/22 06:26:24;;;;;;;4.80;2.37;;;33.20;77.70;;;;;;1773176;79;21147;-74
2021/11/22 06:28:55;;;;;;;6.35;2.67;;;33.20;76.50;;;;;;1764468;79;21125;-74
2021/11/22 06:31:26;;;;;;;5.78;3.12;;;33.20;71.80;;;;;;1771857;81;21773;-74
2021/11/22 06:33:57;;;;;;;4.87;2.77;;;33.20;76.60;;;;;;1772945;79;21163;-74
2021/11/22 06:36:28;;;;;;;8.65;3.52;;;33.10;74.10;;;;;;1773873;79;21671;-73
2021/11/22 06:38:59;;;;;;;6.78;3.20;;;33.30;73.80;;;;;;1774379;79;21186;-78
2021/11/22 06:41:30;;;;;;;5.15;3.10;;;33.10;75.70;;;;;;1772055;79;21163;-75
2021/11/22 06:44:01;;;;;;;6.37;3.08;;;33.20;74.60;;;;;;1771369;80;21121;-75
2021/11/22 06:46:32;;;;;;;4.85;2.67;;;33.30;76.60;;;;;;1774827;79;21203;-74
2021/11/22 06:49:03;;;;;;;6.97;3.00;;;33.10;79.90;;;;;;1766764;79;21104;-76
2021/11/22 06:51:34;;;;;;;6.47;3.10;;;33.10;81.20;;;;;;1752356;80;21148;-77
2021/11/22 06:54:05;;;;;;;5.67;2.70;;;33.10;78.80;;;;;;1735425;82;21191;-76
2021/11/22 06:56:35;;;;;;;4.50;2.60;;;33.10;73.60;;;;;;1735332;81;21167;-75
2021/11/22 06:59:06;;;;;;;4.05;2.40;;;33.20;79.50;;;;;;1735027;81;21186;-74
2021/11/22 07:01:37;;;;;;;7.20;2.65;;;33.20;74.60;;;;;;1737329;81;21076;-76
2021/11/22 07:04:07;;;;;;;6.37;2.72;;;33.40;78.80;;;;;;1736347;81;21112;-75
2021/11/22 07:06:40;;;;;;;6.78;2.70;;;33.30;76.70;;;;;;1750056;81;21216;-76
2021/11/22 07:09:11;;;;;;;5.83;3.00;;;33.30;76.70;;;;;;1746876;81;21281;-75
2021/11/22 07:11:43;;;;;;;5.72;2.98;;;33.50;89.80;;;;;;1746538;81;21103;-75
2021/11/22 07:14:13;;;;;;;6.22;2.90;;;33.30;93.10;;;;;;1742790;81;21210;-75
2021/11/22 07:16:44;;;;;;;5.33;2.45;;;33.00;93.90;;;;;;1744739;81;21661;-77
2021/11/22 07:19:15;;;;;;;5.83;2.47;;;33.20;93.90;;;;;;1734486;82;21599;-73
2021/11/22 07:21:46;;;;;;;6.40;3.02;;;33.10;93.70;;;;;;1740467;81;21124;-75
2021/11/22 07:24:17;;;;;;;8.33;3.10;;;33.10;94.00;;;;;;1739153;81;21208;-76
2021/11/22 07:26:48;;;;;;;5.47;3.00;;;32.80;94.10;;;;;;1737782;82;21143;-75
2021/11/22 07:29:20;;;;;;;6.92;3.35;;;32.80;95.00;;;;;;1741679;81;21205;-74
2021/11/22 07:31:50;;;;;;;6.30;3.15;;;32.80;95.70;;;;;;1738217;81;21183;-76
2021/11/22 07:34:21;;;;;;;5.10;3.10;;;32.80;95.00;;;;;;1739761;81;21170;-76
2021/11/22 07:36:52;;;;;;;7.83;3.10;;;32.80;94.40;;;;;;1741164;81;21156;-76
2021/11/22 07:39:23;;;;;;;5.47;2.70;;;32.70;94.10;;;;;;1780415;79;21230;-76
2021/11/22 07:41:56;;;;;;;8.03;3.00;;;32.70;94.30;;;;;;1779278;79;21503;-78
2021/11/22 07:44:27;;;;;;;5.35;3.25;;;32.70;94.50;;;;;;1775998;79;21518;-77
2021/11/22 07:46:59;;;;;;;6.87;2.98;;;32.30;94.30;;;;;;1787764;79;21199;-77
2021/11/22 07:49:30;;;;;;;8.23;4.70;;;32.30;94.50;;;;;;1779884;80;21457;-76
2021/11/22 07:52:01;;;;;;;7.12;3.00;;;32.20;95.00;;;;;;1777208;79;21265;-77
2021/11/22 07:54:32;;;;;;;5.92;2.80;;;32.40;95.10;;;;;;1763403;80;21237;-77
2021/11/22 07:57:03;;;;;;;4.45;2.80;;;32.30;94.90;;;;;;1748011;81;21192;-77
2021/11/22 07:59:34;;;;;;;5.30;2.58;;;32.40;94.90;;;;;;1788400;79;21182;-77
2021/11/22 08:02:05;;;;;;;6.42;2.60;;;32.20;93.80;;;;;;1802205;78;21171;-78
2021/11/22 08:04:36;;;;;;;6.53;2.67;;;32.40;93.50;;;;;;1778307;79;21720;-77
2021/11/22 08:07:14;;;;;;;6.92;2.65;;;32.40;93.50;;;;;;1803291;79;21245;-76
2021/11/22 08:09:44;;;;;;;3.83;2.20;;;32.60;94.10;;;;;;1797544;78;21254;-74
2021/11/22 08:12:25;;;;;;;5.40;2.62;;;32.40;93.90;;;;;;1797688;79;21152;-74
2021/11/22 08:14:43;;;;;;;4.08;2.20;;;32.50;93.40;;;;;;1800139;79;21107;-76
2021/11/22 08:17:14;;;;;;;7.40;3.52;;;32.60;93.70;;;;;;1808090;79;21743;-77
2021/11/22 08:19:45;;;;;;;5.22;2.67;;;32.60;93.90;;;;;;1793245;79;21257;-77
2021/11/22 08:22:16;;;;;;;5.37;2.52;;;32.60;94.00;;;;;;1796382;79;21153;-77
2021/11/22 08:24:51;;;;;;;5.15;2.70;;;32.70;93.50;;;;;;1802586;79;21727;-78
2021/11/22 08:27:22;;;;;;;6.45;2.95;;;32.70;93.50;;;;;;1796425;79;21628;-75
2021/11/22 08:29:53;;;;;;;4.62;2.77;;;32.70;93.30;;;;;;1795488;79;21149;-75
2021/11/22 08:32:24;;;;;;;4.60;2.80;;;32.80;93.20;;;;;;1758904;80;21543;-75
2021/11/22 08:34:55;;;;;;;4.55;2.50;;;32.80;93.30;;;;;;1735715;81;21771;-76
2021/11/22 08:37:26;;;;;;;5.22;2.37;;;32.60;93.20;;;;;;1757742;80;21248;-78
2021/11/22 08:39:57;;;;;;;5.20;2.55;;;32.60;93.50;;;;;;1744773;80;21570;-76
2021/11/22 08:42:28;;;;;;;4.87;2.67;;;32.70;93.90;;;;;;1745415;80;21128;-77
2021/11/22 08:45:00;;;;;;;7.47;2.80;;;32.70;93.60;;;;;;1747279;81;21246;-75
2021/11/22 08:47:31;;;;;;;7.47;3.02;;;32.70;93.40;;;;;;1729413;82;21176;-76
2021/11/22 08:50:03;;;;;;;6.25;2.70;;;32.60;93.30;;;;;;1721286;82;21971;-76
2021/11/22 08:52:34;;;;;;;6.30;2.20;;;32.60;93.20;;;;;;1761075;80;21220;-74
2021/11/22 08:55:06;;;;;;;4.42;2.22;;;32.70;93.20;;;;;;1759156;81;21253;-75
2021/11/22 08:57:38;;;;;;;8.88;3.22;;;32.60;93.20;;;;;;1790573;78;21270;-76
2021/11/22 09:00:11;;;;;;;6.47;2.87;;;32.70;93.00;;;;;;1804255;78;21106;-75
2021/11/22 09:02:42;;;;;;;5.35;2.42;;;32.70;93.20;;;;;;1787574;78;21973;-75
2021/11/22 09:05:14;;;;;;;4.75;2.12;;;32.60;93.10;;;;;;1790910;78;21175;-74
2021/11/22 09:07:44;;;;;;;11.33;4.97;;;32.60;67.40;;;;;;1791969;79;21175;-75
2021/11/22 09:10:15;;;;;;;5.12;2.77;;;32.50;66.50;;;;;;1790383;78;21213;-75
2021/11/22 09:12:46;;;;;;;7.58;2.67;;;32.50;67.60;;;;;;1755501;80;21183;-75
2021/11/22 09:15:17;;;;;;;4.62;2.62;;;32.40;67.60;;;;;;1769482;80;21586;-78
2021/11/22 09:17:48;;;;;;;8.48;2.92;;;32.40;68.30;;;;;;1808278;78;21176;-75
2021/11/22 09:20:19;;;;;;;5.40;2.47;;;32.40;70.00;;;;;;1752789;80;21229;-72
2021/11/22 09:22:54;;;;;;;9.95;3.30;;;32.50;70.20;;;;;;1761995;81;21239;-74
2021/11/22 09:25:23;;;;;;;8.43;3.10;;;32.50;74.90;;;;;;1761681;80;21209;-75
2021/11/22 09:27:53;;;;;;;4.42;2.20;;;32.40;70.10;;;;;;1768063;80;21155;-75
2021/11/22 09:30:25;;;;;;;5.15;2.37;;;32.40;69.50;;;;;;1751066;80;21288;-75
2021/11/22 09:32:56;;;;;;;3.75;2.10;;;32.40;69.30;;;;;;1762224;81;21164;-75
2021/11/22 09:35:27;;;;;;;4.40;2.05;;;32.40;69.70;;;;;;1761885;80;21113;-76
2021/11/22 09:37:58;;;;;;;4.65;2.20;;;32.40;70.60;;;;;;1758716;80;21168;-76
2021/11/22 09:40:29;;;;;;;6.03;2.40;;;32.30;71.30;;;;;;1751742;81;21103;-74
2021/11/22 09:43:00;;;;;;;6.45;2.60;;;32.20;78.00;;;;;;1777252;79;21181;-71
2021/11/22 09:45:34;;;;;;;9.75;4.22;;;32.20;76.80;;;;;;1786689;79;21720;-76
2021/11/22 09:48:06;;;;;;;9.15;2.90;;;32.20;79.50;;;;;;1811239;78;21190;-73
2021/11/22 09:50:38;;;;;;;6.58;3.15;;;32.10;72.00;;;;;;1798850;79;21568;-75
2021/11/22 09:53:09;;;;;;;8.93;3.42;;;32.00;71.50;;;;;;1781561;79;21187;-72
2021/11/22 09:55:42;;;;;;;8.65;4.65;;;32.00;72.20;;;;;;1779101;79;21181;-73
2021/11/22 09:58:17;;;;;;;5.83;2.75;;;31.90;72.70;;;;;;1775238;80;21227;-72
2021/11/22 10:00:51;;;;;;;4.92;3.10;;;31.80;73.50;;;;;;1747363;80;21820;-73
2021/11/22 10:03:24;;;;;;;6.03;2.83;;;31.70;74.80;;;;;;1748305;80;21211;-72
2021/11/22 10:05:57;;;;;;;9.48;3.50;;;31.80;75.20;;;;;;1727497;81;21247;-72
2021/11/22 10:08:29;;;;;;;10.15;3.80;;;31.90;83.90;;;;;;1709665;82;21247;-73
2021/11/22 10:11:01;;;;;;;5.30;3.10;;;31.70;74.10;;;;;;1731477;83;21204;-73
2021/11/22 10:13:34;;;;;;;9.58;3.10;;;31.60;74.80;;;;;;1734393;81;21776;-73
2021/11/22 10:16:06;;;;;;;6.00;3.02;;;31.50;76.20;;;;;;1741849;81;21230;-73
2021/11/22 10:18:39;;;;;;;5.10;3.10;;;31.60;83.30;;;;;;1748618;80;21236;-75
2021/11/22 10:21:12;;;;;;;6.40;2.75;;;31.50;82.80;;;;;;1752727;80;21288;-82
2021/11/22 10:23:46;;;;;;;7.53;2.90;;;31.50;80.40;;;;;;1731530;80;21350;-80
2021/11/22 10:26:18;;;;;;;12.37;3.47;;;31.40;75.50;;;;;;1776235;79;21186;-80
2021/11/22 10:28:51;;;;;;;6.65;3.30;;;31.40;89.40;;;;;;1773673;79;22268;-80
2021/11/22 10:31:25;;;;;;;8.83;4.00;;;31.40;82.50;;;;;;1779907;80;21744;-81
2021/11/22 10:33:58;;;;;;;6.95;3.37;;;31.40;73.60;;;;;;1773139;80;21187;-82
2021/11/22 10:36:29;;;;;;;13.68;4.10;;;31.30;73.70;;;;;;1783242;79;21195;-80
2021/11/22 10:39:01;;;;;;;12.03;4.90;;;31.30;73.80;;;;;;1784318;80;21111;-81
2021/11/22 10:41:34;;;;;;;8.85;4.25;;;31.20;74.10;;;;;;1781351;79;21154;-81
2021/11/22 10:44:07;;;;;;;8.23;4.17;;;31.20;74.10;;;;;;1780752;79;21176;-81
2021/11/22 10:46:45;;;;;;;7.47;4.05;;;31.30;74.40;;;;;;1779881;79;21094;-81
2021/11/22 10:49:15;;;;;;;8.18;3.85;;;31.30;74.40;;;;;;1774720;80;21120;-81
2021/11/22 10:51:50;;;;;;;10.28;3.90;;;31.20;74.40;;;;;;1787751;78;21172;-80
2021/11/22 10:54:21;;;;;;;10.00;3.83;;;31.20;74.80;;;;;;1781362;80;21147;-80
2021/11/22 10:56:53;;;;;;;12.88;4.42;;;31.10;75.40;;;;;;1786357;79;22079;-81
2021/11/22 10:59:25;;;;;;;11.68;6.33;;;31.10;75.40;;;;;;1779746;80;21092;-81
2021/11/22 11:01:57;;;;;;;8.00;4.17;;;31.00;75.30;;;;;;1784717;79;21245;-81
2021/11/22 11:04:38;;;;;;;8.90;4.75;;;31.00;75.90;;;;;;1756862;80;21222;-81
2021/11/22 11:07:09;;;;;;;17.35;7.42;;;30.90;76.20;;;;;;1783671;79;21678;-81
2021/11/22 11:09:42;;;;;;;23.80;10.43;;;30.90;76.40;;;;;;1781209;79;21076;-82
2021/11/22 11:12:15;;;;;;;13.40;6.55;;;30.90;76.70;;;;;;1761021;79;21083;-82
2021/11/22 11:15:10;;;;;;;12.45;5.42;;;30.90;76.70;;;;;;1779937;80;21202;-81
2021/11/22 11:17:41;;;;;;;11.43;5.53;;;30.80;77.00;;;;;;1727010;80;21159;-81
2021/11/22 11:20:14;;;;;;;11.25;5.72;;;30.80;77.30;;;;;;1781499;79;21241;-81
2021/11/22 11:22:47;;;;;;;11.90;5.62;;;30.80;78.00;;;;;;1782938;79;21123;-80
2021/11/22 11:25:20;;;;;;;15.72;6.97;;;30.70;77.50;;;;;;1787115;79;21144;-81
2021/11/22 11:27:51;;;;;;;15.88;7.92;;;30.80;77.80;;;;;;1787836;79;21647;-81
2021/11/22 11:30:23;;;;;;;20.97;8.53;;;30.70;79.20;;;;;;1793140;79;21599;-81
2021/11/22 11:32:54;;;;;;;16.12;7.62;;;30.80;78.80;;;;;;1788170;78;21635;-81
2021/11/22 11:35:26;;;;;;;18.12;9.08;;;30.80;77.80;;;;;;1770407;79;21717;-82
2021/11/22 11:37:58;;;;;;;16.55;8.00;;;30.80;76.30;;;;;;1780755;79;21672;-80
2021/11/22 11:40:31;;;;;;;18.27;10.25;;;30.70;75.90;;;;;;1780992;79;21607;-81
2021/11/22 11:43:04;;;;;;;19.37;9.15;;;30.60;75.70;;;;;;1775240;79;21259;-81
2021/11/22 11:45:38;;;;;;;21.93;10.50;;;30.70;75.70;;;;;;1764047;80;21181;-80
2021/11/22 11:48:11;;;;;;;19.55;11.10;;;30.70;76.30;;;;;;1744252;80;21648;-81
2021/11/22 11:50:46;;;;;;;21.48;12.20;;;30.60;75.70;;;;;;1745975;81;21162;-81
2021/11/22 11:53:18;;;;;;;21.52;12.35;;;30.60;75.80;;;;;;1717285;82;21119;-81
2021/11/22 11:55:51;;;;;;;28.35;13.70;;;30.50;76.20;;;;;;1788221;78;21237;-81
2021/11/22 11:58:26;;;;;;;31.42;18.50;;;30.50;76.50;;;;;;1742333;81;21167;-82
2021/11/22 12:00:56;;;;;;;62.00;35.92;;;30.50;76.60;;;;;;1790415;78;21570;-81
2021/11/22 12:03:29;;;;;;;93.12;52.93;;;30.50;76.60;;;;;;1754968;80;22044;-81
2021/11/22 12:06:01;;;;;;;66.57;37.58;;;30.40;76.90;;;;;;1789267;80;21161;-81
2021/11/22 12:08:34;;;;;;;48.95;28.17;;;30.50;77.60;;;;;;1785355;78;21237;-81
2021/11/22 12:11:06;;;;;;;48.05;26.45;;;30.40;77.90;;;;;;1792912;78;21225;-80
2021/11/22 12:13:40;;;;;;;44.73;26.20;;;30.40;78.10;;;;;;1758552;80;21201;-80
2021/11/22 12:16:11;;;;;;;43.80;23.12;;;30.30;78.40;;;;;;1747236;79;21160;-81
2021/11/22 12:18:45;;;;;;;30.75;18.25;;;30.30;78.40;;;;;;1801260;78;21201;-81
2021/11/22 12:21:18;;;;;;;26.93;16.17;;;30.40;79.10;;;;;;1765106;80;21150;-80
2021/11/22 12:23:52;;;;;;;32.17;15.88;;;30.20;79.20;;;;;;1754520;80;21678;-81
2021/11/22 12:26:26;;;;;;;30.82;15.88;;;30.20;79.60;;;;;;1711306;82;21164;-81
2021/11/22 12:28:57;;;;;;;28.15;16.55;;;30.20;79.60;;;;;;1742077;80;21181;-81
2021/11/22 12:31:31;;;;;;;29.07;15.20;;;30.10;79.90;;;;;;1718036;82;21191;-81
2021/11/22 12:34:05;;;;;;;26.77;13.85;;;30.10;80.30;;;;;;1748150;81;21161;-81
2021/11/22 12:36:38;;;;;;;21.40;12.78;;;30.10;81.10;;;;;;1744786;81;21146;-80
2021/11/22 12:39:13;;;;;;;22.32;12.63;;;30.00;81.50;;;;;;1741395;80;21226;-81
2021/11/22 12:41:46;;;;;;;18.75;11.63;;;30.00;82.10;;;;;;1745035;80;21639;-80
2021/11/22 12:44:19;;;;;;;17.70;11.18;;;30.00;82.90;;;;;;1764181;79;21746;-80
2021/11/22 12:46:52;;;;;;;24.30;11.83;;;30.00;83.40;;;;;;1768860;79;21194;-79
2021/11/22 12:49:26;;;;;;;24.02;11.65;;;29.90;83.70;;;;;;1788602;79;21197;-79
2021/11/22 12:51:59;;;;;;;22.40;12.15;;;29.90;83.80;;;;;;1766007;79;21103;-81
2021/11/22 12:54:31;;;;;;;25.45;11.85;;;29.90;84.20;;;;;;1762474;79;21162;-81
2021/11/22 12:57:04;;;;;;;22.32;11.95;;;29.90;83.90;;;;;;1783330;79;21878;-81
2021/11/22 12:59:35;;;;;;;23.40;12.07;;;29.80;84.10;;;;;;1770289;79;21137;-81
2021/11/22 13:02:11;;;;;;;24.87;11.95;;;29.80;84.60;;;;;;1725662;82;21179;-81